Time;durP1;ratioP1;P1;durP2;ratioP2;P2;SDS_P1;SDS_P2;PMS_P1;PMS_P2;Temp;Humidity;BMP_temperature;BMP_pressure;BME280_temperature;BME280_humidity;BME280_pressure;Samples;Min_cycle;Max_cycle;Signal;HPM_P1;HPM_P2
2022/11/22 00:02:15;;;;;;;;;;;23.60;99.90;;;;;;4994188;28;19917;-44
2022/11/22 00:04:41;;;;;;;;;;;23.60;99.90;;;;;;4995226;28;19910;-43
2022/11/22 00:07:06;;;;;;;;;;;23.60;99.90;;;;;;4993818;28;19952;-43
2022/11/22 00:09:32;;;;;;;;;;;23.60;99.90;;;;;;4977611;28;19906;-43
2022/11/22 00:11:57;;;;;;;;;;;23.60;99.90;;;;;;4994992;28;20004;-43
2022/11/22 00:14:23;;;;;;;;;;;23.60;99.90;;;;;;4995067;28;19905;-43
2022/11/22 00:16:48;;;;;;;;;;;23.60;99.90;;;;;;4994709;28;19913;-43
2022/11/22 00:19:14;;;;;;;;;;;23.50;99.90;;;;;;4994840;28;19905;-43
2022/11/22 00:21:40;;;;;;;;;;;23.50;99.90;;;;;;4994902;28;20290;-43
2022/11/22 00:24:05;;;;;;;;;;;23.50;99.90;;;;;;4994763;28;19952;-43
2022/11/22 00:26:31;;;;;;;;;;;23.50;99.90;;;;;;4994743;28;19905;-43
2022/11/22 00:28:56;;;;;;;;;;;23.50;99.90;;;;;;4994583;28;19906;-43
2022/11/22 00:31:22;;;;;;;;;;;23.50;99.90;;;;;;4994663;28;19913;-43
2022/11/22 00:33:47;;;;;;;;;;;23.50;99.90;;;;;;4994679;28;19960;-43
2022/11/22 00:36:15;;;;;;;;;;;23.50;99.90;;;;;;4994494;28;20358;-43
2022/11/22 00:38:40;;;;;;;;;;;23.50;99.90;;;;;;4977431;28;20370;-43
2022/11/22 00:41:06;;;;;;;;;;;23.50;99.90;;;;;;4994509;28;19956;-43
2022/11/22 00:43:31;;;;;;;;;;;23.40;99.90;;;;;;4994608;28;19905;-43
2022/11/22 00:45:58;;;;;;;;;;;23.40;99.90;;;;;;4994604;28;19958;-43
2022/11/22 00:48:24;;;;;;;;;;;23.40;99.90;;;;;;4994407;28;19906;-43
2022/11/22 00:50:49;;;;;;;;;;;23.40;99.90;;;;;;4994349;28;19914;-42
2022/11/22 00:53:15;;;;;;;;;;;23.40;99.90;;;;;;4994588;28;20282;-42
2022/11/22 00:55:40;;;;;;;;;;;23.40;99.90;;;;;;4976764;28;19906;-45
2022/11/22 00:58:06;;;;;;;;;;;23.40;99.90;;;;;;4994231;28;19906;-43
2022/11/22 01:00:32;;;;;;;;;;;23.40;99.90;;;;;;4994596;28;20004;-44
2022/11/22 01:02:57;;;;;;;;;;;23.40;99.90;;;;;;4994092;28;19936;-43
2022/11/22 01:05:23;;;;;;;;;;;23.40;99.90;;;;;;4994308;28;19945;-43
2022/11/22 01:07:48;;;;;;;;;;;23.30;99.90;;;;;;4994120;28;20377;-43
2022/11/22 01:10:14;;;;;;;;;;;23.30;99.90;;;;;;4994321;28;20433;-57
2022/11/22 01:12:40;;;;;;;;;;;23.30;99.90;;;;;;4993996;28;19921;-43
2022/11/22 01:15:05;;;;;;;;;;;23.30;99.90;;;;;;4992818;28;20387;-43
2022/11/22 01:17:31;;;;;;;;;;;23.30;99.90;;;;;;4994062;28;19906;-44
2022/11/22 01:19:57;;;;;;;;;;;23.30;99.90;;;;;;4976504;28;19913;-43
2022/11/22 01:22:22;;;;;;;;;;;23.30;99.90;;;;;;4993998;28;19913;-43
2022/11/22 01:24:48;;;;;;;;;;;23.30;99.90;;;;;;4994049;28;19906;-42
2022/11/22 01:27:13;;;;;;;;;;;23.30;99.90;;;;;;4993952;28;19913;-42
2022/11/22 01:29:39;;;;;;;;;;;23.20;99.90;;;;;;4993808;28;20325;-43
2022/11/22 01:32:05;;;;;;;;;;;23.20;99.90;;;;;;4992574;28;19909;-43
2022/11/22 01:34:31;;;;;;;;;;;23.20;99.90;;;;;;4994040;28;19906;-42
2022/11/22 01:36:57;;;;;;;;;;;23.20;99.90;;;;;;4993959;28;19913;-42
2022/11/22 01:39:22;;;;;;;;;;;23.20;99.90;;;;;;4992447;28;20046;-42
2022/11/22 01:41:48;;;;;;;;;;;23.20;99.90;;;;;;4993944;28;19914;-43
2022/11/22 01:44:24;;;;;;;;;;;23.20;99.90;;;;;;4993753;28;19913;-43
2022/11/22 01:46:54;;;;;;;;;;;23.20;99.90;;;;;;4993954;28;20263;-43
2022/11/22 01:49:29;;;;;;;;;;;23.20;99.90;;;;;;4993727;28;19979;-43
2022/11/22 01:51:58;;;;;;;;;;;23.20;99.90;;;;;;4993739;28;19913;-43
2022/11/22 01:54:25;;;;;;;;;;;23.20;99.90;;;;;;4993824;28;20000;-43
2022/11/22 01:56:53;;;;;;;;;;;23.20;99.90;;;;;;4993505;28;19912;-43
2022/11/22 01:59:20;;;;;;;;;;;23.10;99.90;;;;;;5004204;23;19900;-49
2022/11/22 02:01:46;;;;;;;;;;;23.10;99.90;;;;;;4987889;28;20008;-49
2022/11/22 02:04:14;;;;;;;;;;;23.20;99.90;;;;;;4993507;28;20008;-50
2022/11/22 02:06:47;;;;;;;;;;;23.10;99.90;;;;;;4993795;28;19906;-50
2022/11/22 02:09:13;;;;;;;;;;;23.10;99.90;;;;;;4993439;28;20370;-50
2022/11/22 02:11:42;;;;;;;;;;;23.10;99.90;;;;;;4993493;28;19945;-49
2022/11/22 02:14:08;;;;;;;;;;;23.10;99.90;;;;;;4993672;28;20370;-49
2022/11/22 02:16:34;;;;;;;;;;;23.10;99.90;;;;;;4993457;28;20329;-50
2022/11/22 02:18:59;;;;;;;;;;;23.10;99.90;;;;;;4993679;28;19910;-50
2022/11/22 02:21:25;;;;;;;;;;;23.10;99.90;;;;;;4993517;28;19976;-50
2022/11/22 02:23:53;;;;;;;;;;;23.10;99.90;;;;;;4994042;28;19928;-49
2022/11/22 02:26:19;;;;;;;;;;;23.10;99.90;;;;;;4996993;28;19906;-49
2022/11/22 02:28:45;;;;;;;;;;;23.10;99.90;;;;;;4996834;28;19906;-50
2022/11/22 02:31:29;;;;;;;;;;;23.10;99.90;;;;;;4979350;28;19953;-49
2022/11/22 02:33:55;;;;;;;;;;;23.00;99.90;;;;;;4979426;28;20297;-49
2022/11/22 02:36:20;;;;;;;;;;;23.10;99.90;;;;;;4996717;28;20005;-49
2022/11/22 02:38:46;;;;;;;;;;;23.00;99.90;;;;;;4996885;28;19910;-49
2022/11/22 02:41:11;;;;;;;;;;;23.00;99.90;;;;;;4979221;28;19921;-49
2022/11/22 02:43:44;;;;;;;;;;;23.00;99.90;;;;;;4996690;28;19913;-49
2022/11/22 02:46:11;;;;;;;;;;;23.00;99.90;;;;;;4996730;28;19913;-49
2022/11/22 02:48:40;;;;;;;;;;;23.00;99.90;;;;;;4996637;28;19913;-50
2022/11/22 02:51:06;;;;;;;;;;;23.00;99.90;;;;;;4996570;28;19916;-49
2022/11/22 02:53:31;;;;;;;;;;;23.00;99.90;;;;;;4996385;28;19906;-50
2022/11/22 02:55:57;;;;;;;;;;;23.00;99.90;;;;;;4988431;28;19906;-49
2022/11/22 02:58:23;;;;;;;;;;;23.00;99.90;;;;;;4976885;28;20251;-50
2022/11/22 03:00:48;;;;;;;;;;;23.00;99.90;;;;;;5002869;22;19921;-48
2022/11/22 03:03:14;;;;;;;;;;;23.00;99.90;;;;;;4996319;28;20286;-49
2022/11/22 03:05:39;;;;;;;;;;;23.00;99.90;;;;;;4996167;28;20008;-49
2022/11/22 03:08:05;;;;;;;;;;;23.00;99.90;;;;;;4996215;28;19906;-48
2022/11/22 03:10:31;;;;;;;;;;;22.90;99.90;;;;;;4996285;28;19905;-49
2022/11/22 03:12:57;;;;;;;;;;;22.90;99.90;;;;;;4995977;28;19906;-48
2022/11/22 03:15:22;;;;;;;;;;;22.90;99.90;;;;;;4996109;28;19969;-48
2022/11/22 03:17:48;;;;;;;;;;;22.90;99.90;;;;;;4995810;28;19910;-48
2022/11/22 03:20:13;;;;;;;;;;;22.90;99.90;;;;;;4995952;28;19913;-49
2022/11/22 03:22:39;;;;;;;;;;;22.90;99.90;;;;;;4995803;28;19936;-48
2022/11/22 03:25:05;;;;;;;;;;;22.90;99.90;;;;;;4995817;28;19905;-48
2022/11/22 03:27:31;;;;;;;;;;;22.90;99.90;;;;;;4995821;28;20007;-48
2022/11/22 03:29:56;;;;;;;;;;;22.90;99.90;;;;;;4995773;28;19912;-49
2022/11/22 03:32:22;;;;;;;;;;;22.90;99.90;;;;;;4995632;28;20286;-48
2022/11/22 03:34:47;;;;;;;;;;;22.90;99.90;;;;;;4985737;28;19906;-48
2022/11/22 03:37:13;;;;;;;;;;;22.90;99.90;;;;;;4990618;28;20420;-49
2022/11/22 03:39:39;;;;;;;;;;;22.80;99.90;;;;;;4995621;28;19910;-49
2022/11/22 03:42:04;;;;;;;;;;;22.80;99.90;;;;;;4995554;28;20302;-48
2022/11/22 03:44:30;;;;;;;;;;;22.80;99.90;;;;;;4995216;28;19960;-49
2022/11/22 03:46:55;;;;;;;;;;;22.80;99.90;;;;;;4995722;28;19905;-48
2022/11/22 03:49:21;;;;;;;;;;;22.80;99.90;;;;;;4995624;28;19906;-48
2022/11/22 03:51:46;;;;;;;;;;;22.80;99.90;;;;;;4995330;28;19910;-49
2022/11/22 03:54:12;;;;;;;;;;;22.80;99.90;;;;;;4995442;28;19906;-48
2022/11/22 03:56:37;;;;;;;;;;;22.80;99.90;;;;;;4981850;28;19906;-48
2022/11/22 03:59:03;;;;;;;;;;;22.80;99.90;;;;;;4994996;28;19910;-48
2022/11/22 04:01:29;;;;;;;;;;;22.70;99.90;;;;;;4995549;28;19959;-48
2022/11/22 04:03:54;;;;;;;;;;;22.70;99.90;;;;;;4995051;28;19953;-48
2022/11/22 04:06:20;;;;;;;;;;;22.80;99.90;;;;;;4995267;28;19913;-48
2022/11/22 04:08:45;;;;;;;;;;;22.70;99.90;;;;;;4995059;28;19906;-48
2022/11/22 04:11:11;;;;;;;;;;;22.70;99.90;;;;;;4994981;28;20366;-48
2022/11/22 04:16:21;;;;;;;;;;;22.70;99.90;;;;;;4995177;28;19912;-49
2022/11/22 04:18:46;;;;;;;;;;;22.70;99.90;;;;;;4994915;28;20342;-49
2022/11/22 04:26:40;;;;;;;;;;;22.70;99.90;;;;;;4995111;28;20269;-49
2022/11/22 04:29:06;;;;;;;;;;;22.70;99.90;;;;;;4994794;28;19906;-49
2022/11/22 04:34:16;;;;;;;;;;;22.70;99.90;;;;;;4994780;28;19928;-48
2022/11/22 04:36:41;;;;;;;;;;;22.60;99.90;;;;;;4994748;28;20366;-49
2022/11/22 04:39:07;;;;;;;;;;;22.60;99.90;;;;;;4994644;28;19905;-49
2022/11/22 04:41:32;;;;;;;;;;;22.60;99.90;;;;;;4994479;28;20374;-49
2022/11/22 04:46:42;;;;;;;;;;;22.60;99.90;;;;;;4994058;28;20023;-48
2022/11/22 04:49:07;;;;;;;;;;;22.60;99.90;;;;;;4994489;28;20362;-48
2022/11/22 04:54:17;;;;;;;;;;;22.60;99.90;;;;;;4994561;28;19912;-49
2022/11/22 04:56:43;;;;;;;;;;;22.60;99.90;;;;;;4982058;28;20008;-48
2022/11/22 04:59:08;;;;;;;;;;;22.60;99.90;;;;;;4993113;28;19912;-49
2022/11/22 05:01:34;;;;;;;;;;;22.60;99.90;;;;;;4995102;28;20351;-48
2022/11/22 05:04:00;;;;;;;;;;;22.60;99.90;;;;;;4994086;28;19906;-49
2022/11/22 05:06:25;;;;;;;;;;;22.50;99.90;;;;;;4994592;28;20293;-48
2022/11/22 05:08:51;;;;;;;;;;;22.50;99.90;;;;;;4994332;28;19913;-49
2022/11/22 05:11:17;;;;;;;;;;;22.50;99.90;;;;;;4993090;28;19905;-49
2022/11/22 05:13:43;;;;;;;;;;;22.60;99.90;;;;;;4994126;28;19912;-49
2022/11/22 05:16:10;;;;;;;;;;;22.50;99.90;;;;;;4994092;28;19992;-49
2022/11/22 05:18:36;;;;;;;;;;;22.50;99.90;;;;;;4994148;28;19906;-48
2022/11/22 05:21:06;;;;;;;;;;;22.50;99.90;;;;;;4994088;28;20386;-48
2022/11/22 05:26:16;;;;;;;;;;;22.50;99.90;;;;;;4994321;28;20450;-48
2022/11/22 05:28:41;;;;;;;;;;;22.50;99.90;;;;;;4994064;28;19962;-49
2022/11/22 05:31:07;;;;;;;;;;;22.50;99.90;;;;;;4976465;28;19928;-49
2022/11/22 05:33:33;;;;;;;;;;;22.50;99.90;;;;;;4994029;28;19906;-48
2022/11/22 05:35:59;;;;;;;;;;;22.50;99.90;;;;;;4993849;28;19905;-48
2022/11/22 05:38:25;;;;;;;;;;;22.50;99.90;;;;;;4994051;28;19996;-48
2022/11/22 05:40:50;;;;;;;;;;;22.50;99.90;;;;;;4993896;28;20381;-48
2022/11/22 05:43:16;;;;;;;;;;;22.50;99.90;;;;;;4993909;28;19914;-49
2022/11/22 05:45:41;;;;;;;;;;;22.50;99.90;;;;;;4976495;28;20257;-49
2022/11/22 05:48:07;;;;;;;;;;;22.50;99.90;;;;;;4993914;28;19906;-48
2022/11/22 05:50:33;;;;;;;;;;;22.50;99.90;;;;;;4980125;28;19913;-48
2022/11/22 05:53:02;;;;;;;;;;;22.50;99.90;;;;;;4993796;28;19945;-48
2022/11/22 05:55:28;;;;;;;;;;;22.40;99.90;;;;;;4979579;28;19906;-48
2022/11/22 05:57:53;;;;;;;;;;;22.50;99.90;;;;;;4982561;28;19912;-48
2022/11/22 06:00:19;;;;;;;;;;;22.50;99.90;;;;;;4996213;28;19917;-48
2022/11/22 06:02:45;;;;;;;;;;;22.40;99.90;;;;;;4992252;28;19961;-48
2022/11/22 06:05:10;;;;;;;;;;;22.40;99.90;;;;;;4989081;28;20074;-48
2022/11/22 06:07:36;;;;;;;;;;;22.40;99.90;;;;;;4995788;28;19906;-48
2022/11/22 06:10:02;;;;;;;;;;;22.40;99.90;;;;;;4985205;28;19981;-48
2022/11/22 06:12:28;;;;;;;;;;;22.50;99.90;;;;;;4997360;28;19912;-48
2022/11/22 06:14:53;;;;;;;;;;;22.40;99.90;;;;;;4997237;28;19993;-48
2022/11/22 06:17:19;;;;;;;;;;;22.40;99.90;;;;;;4997245;28;19906;-48
2022/11/22 06:19:44;;;;;;;;;;;22.40;99.90;;;;;;4983873;28;19906;-48
2022/11/22 06:22:10;;;;;;;;;;;22.40;99.90;;;;;;4996695;28;19920;-47
2022/11/22 06:24:35;;;;;;;;;;;22.40;99.90;;;;;;4997011;28;19905;-48
2022/11/22 06:27:01;;;;;;;;;;;22.40;99.90;;;;;;4997102;28;20113;-48
2022/11/22 06:29:28;;;;;;;;;;;22.40;99.90;;;;;;4996975;28;20372;-47
2022/11/22 06:31:53;;;;;;;;;;;22.40;99.90;;;;;;4996899;28;19949;-47
2022/11/22 06:34:19;;;;;;;;;;;22.40;99.90;;;;;;4996721;28;19945;-48
2022/11/22 06:36:45;;;;;;;;;;;22.40;99.90;;;;;;4995600;28;19913;-47
2022/11/22 06:39:11;;;;;;;;;;;22.40;99.90;;;;;;4996579;28;19941;-47
2022/11/22 06:41:36;;;;;;;;;;;22.40;99.90;;;;;;4996500;28;19949;-47
2022/11/22 06:44:06;;;;;;;;;;;22.40;99.90;;;;;;4996608;28;19912;-47
2022/11/22 06:46:32;;;;;;;;;;;22.40;99.90;;;;;;4995225;28;19905;-47
2022/11/22 06:48:57;;;;;;;;;;;22.40;99.90;;;;;;4996607;28;20381;-47
2022/11/22 06:51:24;;;;;;;;;;;22.40;99.90;;;;;;4983086;28;19968;-47
2022/11/22 06:53:50;;;;;;;;;;;22.40;99.90;;;;;;4977950;28;19960;-47
2022/11/22 06:56:16;;;;;;;;;;;22.40;99.90;;;;;;4987656;28;19906;-47
2022/11/22 06:58:43;;;;;;;;;;;22.30;99.90;;;;;;4991386;28;19912;-48
2022/11/22 07:01:27;;;;;;;;;;;22.40;99.90;;;;;;4996113;28;19918;-47
2022/11/22 07:03:59;;;;;;;;;;;22.40;99.90;;;;;;4996328;28;19917;-49
2022/11/22 07:06:26;;;;;;;;;;;22.40;99.90;;;;;;4996288;28;19964;-47
2022/11/22 07:08:52;;;;;;;;;;;22.40;99.90;;;;;;4996291;28;19912;-47
2022/11/22 07:11:21;;;;;;;;;;;22.30;99.90;;;;;;4978244;28;19905;-47
2022/11/22 07:13:47;;;;;;;;;;;22.30;99.90;;;;;;4996093;28;19913;-48
2022/11/22 07:16:14;;;;;;;;;;;22.30;99.90;;;;;;4996175;28;19988;-48
2022/11/22 07:18:40;;;;;;;;;;;22.30;99.90;;;;;;4995946;28;19945;-48
2022/11/22 07:21:07;;;;;;;;;;;22.30;99.90;;;;;;4978469;28;20340;-49
2022/11/22 07:23:32;;;;;;;;;;;22.30;99.90;;;;;;4996210;28;19953;-48
2022/11/22 07:25:58;;;;;;;;;;;22.30;99.90;;;;;;4995889;28;19967;-47
2022/11/22 07:28:24;;;;;;;;;;;22.30;99.90;;;;;;4995832;28;19945;-47
2022/11/22 07:30:50;;;;;;;;;;;22.30;99.90;;;;;;4995710;28;19906;-47
2022/11/22 07:33:16;;;;;;;;;;;22.30;99.90;;;;;;4994488;28;19906;-49
2022/11/22 07:35:41;;;;;;;;;;;22.30;99.90;;;;;;4995711;28;19905;-48
2022/11/22 07:38:07;;;;;;;;;;;22.30;99.90;;;;;;4995624;28;19913;-48
2022/11/22 07:40:32;;;;;;;;;;;22.30;99.90;;;;;;4995742;28;20322;-48
2022/11/22 07:42:58;;;;;;;;;;;22.30;99.90;;;;;;4995667;28;20020;-48
2022/11/22 07:45:24;;;;;;;;;;;22.30;99.90;;;;;;4995477;28;19905;-48
2022/11/22 07:47:49;;;;;;;;;;;22.30;99.90;;;;;;4995515;28;19912;-48
2022/11/22 07:50:15;;;;;;;;;;;22.30;99.90;;;;;;4981846;28;19928;-48
2022/11/22 07:52:40;;;;;;;;;;;22.30;99.90;;;;;;4995364;28;19906;-48
2022/11/22 07:55:06;;;;;;;;;;;22.30;99.90;;;;;;4985276;28;19913;-48
2022/11/22 07:57:32;;;;;;;;;;;22.30;99.90;;;;;;4980951;28;19952;-48
2022/11/22 07:59:58;;;;;;;;;;;22.30;99.90;;;;;;4995222;28;20315;-47
2022/11/22 08:02:23;;;;;;;;;;;22.30;99.90;;;;;;4994979;28;19940;-47
2022/11/22 08:04:49;;;;;;;;;;;22.30;99.90;;;;;;4995171;28;19913;-48
2022/11/22 08:07:15;;;;;;;;;;;22.30;99.90;;;;;;4995235;28;19905;-48
2022/11/22 08:09:40;;;;;;;;;;;22.30;99.90;;;;;;4995029;28;20378;-47
2022/11/22 08:12:06;;;;;;;;;;;22.30;99.90;;;;;;4994918;28;19909;-48
2022/11/22 08:14:31;;;;;;;;;;;22.30;99.90;;;;;;4995097;28;19988;-48
2022/11/22 08:16:57;;;;;;;;;;;22.30;99.90;;;;;;4994889;28;19906;-48
2022/11/22 08:19:22;;;;;;;;;;;22.30;99.90;;;;;;4995016;28;19905;-47
2022/11/22 08:21:48;;;;;;;;;;;22.30;99.90;;;;;;4994191;28;19914;-47
2022/11/22 08:24:14;;;;;;;;;;;22.30;99.90;;;;;;4994776;28;19906;-47
2022/11/22 08:26:40;;;;;;;;;;;22.30;99.90;;;;;;4994863;28;20366;-47
2022/11/22 08:29:07;;;;;;;;;;;22.30;99.90;;;;;;4994720;28;19906;-47
2022/11/22 08:31:33;;;;;;;;;;;22.40;99.90;;;;;;4994650;28;19916;-47
2022/11/22 08:33:59;;;;;;;;;;;22.40;99.90;;;;;;4994737;28;19906;-47
2022/11/22 08:36:25;;;;;;;;;;;22.30;99.90;;;;;;4977084;28;19906;-47
2022/11/22 08:38:51;;;;;;;;;;;22.40;99.90;;;;;;4994617;28;19937;-47
2022/11/22 08:41:16;;;;;;;;;;;22.40;99.90;;;;;;4994277;28;20394;-48
2022/11/22 08:43:42;;;;;;;;;;;22.40;99.90;;;;;;4994288;28;19961;-48
2022/11/22 08:46:07;;;;;;;;;;;22.40;99.90;;;;;;4994293;28;19968;-47
2022/11/22 08:48:34;;;;;;;;;;;22.40;99.90;;;;;;4994264;28;20323;-47
2022/11/22 08:51:01;;;;;;;;;;;22.40;99.90;;;;;;4994281;28;20067;-47
2022/11/22 08:53:28;;;;;;;;;;;22.40;99.90;;;;;;4994257;28;19906;-48
2022/11/22 08:55:54;;;;;;;;;;;22.40;99.90;;;;;;4988634;28;19910;-48
2022/11/22 08:58:20;;;;;;;;;;;22.50;99.90;;;;;;4984573;28;20014;-47
2022/11/22 09:00:45;;;;;;;;;;;22.50;99.90;;;;;;4993720;28;19925;-49
2022/11/22 09:03:11;;;;;;;;;;;22.60;99.90;;;;;;4994154;28;19913;-48
2022/11/22 09:05:36;;;;;;;;;;;22.60;99.90;;;;;;4994280;28;19906;-48
2022/11/22 09:08:02;;;;;;;;;;;22.60;99.90;;;;;;4993974;28;19906;-48
2022/11/22 09:10:28;;;;;;;;;;;22.70;99.90;;;;;;4993983;28;19972;-49
2022/11/22 09:12:53;;;;;;;;;;;22.70;99.90;;;;;;4993987;28;19967;-47
2022/11/22 09:15:19;;;;;;;;;;;22.70;99.90;;;;;;4993735;28;19905;-48
2022/11/22 09:17:44;;;;;;;;;;;22.80;99.90;;;;;;4994112;28;19988;-47
2022/11/22 09:20:10;;;;;;;;;;;22.80;99.90;;;;;;4980126;28;19906;-48
2022/11/22 09:22:36;;;;;;;;;;;22.80;99.90;;;;;;4993873;28;20285;-48
2022/11/22 09:25:02;;;;;;;;;;;22.80;99.90;;;;;;4992810;28;20336;-48
2022/11/22 09:27:28;;;;;;;;;;;22.90;99.90;;;;;;4993960;28;19906;-48
2022/11/22 09:29:53;;;;;;;;;;;22.90;99.90;;;;;;4993902;28;19948;-48
2022/11/22 09:32:19;;;;;;;;;;;23.00;99.90;;;;;;4993881;28;19901;-47
2022/11/22 09:34:44;;;;;;;;;;;23.00;99.90;;;;;;4997386;28;19945;-48
2022/11/22 09:37:10;;;;;;;;;;;23.10;99.90;;;;;;4997826;28;20001;-48
2022/11/22 09:39:36;;;;;;;;;;;23.10;99.90;;;;;;4997663;28;19936;-48
2022/11/22 09:42:13;;;;;;;;;;;23.20;99.90;;;;;;4997557;28;19963;-48
2022/11/22 09:44:54;;;;;;;;;;;23.20;99.90;;;;;;4997587;28;19906;-47
2022/11/22 09:47:32;;;;;;;;;;;23.30;99.90;;;;;;4997471;28;20005;-47
2022/11/22 09:50:00;;;;;;;;;;;23.30;99.90;;;;;;4980262;28;19905;-48
2022/11/22 09:52:45;;;;;;;;;;;23.40;99.90;;;;;;4997304;28;19906;-48
2022/11/22 09:55:21;;;;;;;;;;;23.40;99.90;;;;;;4997700;28;19905;-48
2022/11/22 09:58:06;;;;;;;;;;;23.50;99.90;;;;;;4971513;28;20358;-48
2022/11/22 10:00:31;;;;;;;;;;;23.50;99.90;;;;;;4976558;28;19976;-48
2022/11/22 10:03:16;;;;;;;;;;;23.60;99.90;;;;;;4977786;28;19946;-48
2022/11/22 10:05:56;;;;;;;;;;;23.60;99.90;;;;;;4977871;28;19906;-48
2022/11/22 10:08:40;;;;;;;;;;;23.80;99.90;;;;;;4977636;28;19913;-49
2022/11/22 10:11:18;;;;;;;;;;;23.80;99.90;;;;;;4978022;28;19914;-48
2022/11/22 10:13:51;;;;;;;;;;;23.90;99.90;;;;;;4977969;28;19918;-48
2022/11/22 10:16:25;;;;;;;;;;;23.90;99.90;;;;;;4977744;28;19913;-48
2022/11/22 10:18:54;;;;;;;;;;;24.00;99.90;;;;;;4976314;28;20547;-48
2022/11/22 10:21:19;;;;;;;;;;;24.10;99.90;;;;;;4977521;28;19941;-49
2022/11/22 10:23:46;;;;;;;;;;;24.10;99.90;;;;;;4977562;28;20437;-48
2022/11/22 10:26:17;;;;;;;;;;;24.20;99.90;;;;;;4977419;28;19906;-48
2022/11/22 10:28:48;;;;;;;;;;;24.20;99.90;;;;;;4977401;28;19913;-48
2022/11/22 10:31:22;;;;;;;;;;;24.10;99.90;;;;;;4977158;28;19917;-48
2022/11/22 10:33:54;;;;;;;;;;;24.20;99.90;;;;;;4977434;28;19906;-48
2022/11/22 10:36:38;;;;;;;;;;;24.10;99.90;;;;;;4977339;28;19906;-48
2022/11/22 10:39:03;;;;;;;;;;;24.10;99.90;;;;;;4977146;28;19906;-48
2022/11/22 10:41:29;;;;;;;;;;;24.10;99.90;;;;;;4976940;28;20318;-48
2022/11/22 10:44:01;;;;;;;;;;;24.10;99.90;;;;;;4977105;28;19906;-48
2022/11/22 10:46:29;;;;;;;;;;;24.10;99.90;;;;;;4976461;28;19916;-48
2022/11/22 10:49:03;;;;;;;;;;;24.10;99.90;;;;;;4976872;28;20018;-48
2022/11/22 10:51:38;;;;;;;;;;;24.10;99.90;;;;;;4976975;28;20008;-48
2022/11/22 10:54:09;;;;;;;;;;;24.10;99.90;;;;;;4976909;28;20320;-48
2022/11/22 10:56:45;;;;;;;;;;;24.20;99.90;;;;;;4967055;28;20346;-48
2022/11/22 10:59:17;;;;;;;;;;;24.10;99.90;;;;;;4971167;28;19907;-48
2022/11/22 11:02:01;;;;;;;;;;;24.10;99.90;;;;;;4968996;28;19918;-48
2022/11/22 11:04:30;;;;;;;;;;;24.10;99.90;;;;;;4954630;29;20363;-48
2022/11/22 11:06:57;;;;;;;;;;;24.10;99.90;;;;;;4957392;28;20363;-49
2022/11/22 11:09:28;;;;;;;;;;;24.10;99.90;;;;;;4957260;28;20387;-48
2022/11/22 11:11:54;;;;;;;;;;;24.10;99.90;;;;;;4957398;28;20367;-48
2022/11/22 11:14:31;;;;;;;;;;;24.10;99.90;;;;;;4957532;29;19906;-48
2022/11/22 11:16:58;;;;;;;;;;;24.10;99.90;;;;;;4957172;28;20240;-49
2022/11/22 11:19:24;;;;;;;;;;;24.10;99.90;;;;;;4957515;28;20365;-49
2022/11/22 11:21:56;;;;;;;;;;;24.10;99.90;;;;;;4957105;28;19918;-50
2022/11/22 11:24:22;;;;;;;;;;;24.10;99.90;;;;;;4957085;28;19906;-47
2022/11/22 11:26:52;;;;;;;;;;;24.10;99.90;;;;;;4956973;29;19965;-48
2022/11/22 11:29:18;;;;;;;;;;;24.10;99.90;;;;;;4957040;28;19996;-49
2022/11/22 11:31:43;;;;;;;;;;;24.20;99.90;;;;;;4957030;29;19993;-48
2022/11/22 11:34:27;;;;;;;;;;;24.30;99.90;;;;;;4957136;29;19907;-49
2022/11/22 11:36:55;;;;;;;;;;;24.30;99.90;;;;;;4956911;28;19910;-49
2022/11/22 11:39:21;;;;;;;;;;;24.30;99.90;;;;;;4957144;28;20000;-48
2022/11/22 11:41:47;;;;;;;;;;;24.40;99.90;;;;;;4956727;29;20391;-49
2022/11/22 11:44:30;;;;;;;;;;;24.40;99.90;;;;;;4956837;29;19954;-49
2022/11/22 11:46:56;;;;;;;;;;;24.50;99.90;;;;;;4956691;29;19961;-48
2022/11/22 11:49:32;;;;;;;;;;;24.50;99.90;;;;;;4956695;28;20282;-49
2022/11/22 11:51:58;;;;;;;;;;;24.60;99.90;;;;;;4956580;28;19906;-48
2022/11/22 11:54:30;;;;;;;;;;;24.60;99.90;;;;;;4971272;28;19906;-48
2022/11/22 11:56:57;;;;;;;;;;;24.70;99.90;;;;;;4955680;28;20023;-48
2022/11/22 11:59:43;;;;;;;;;;;24.70;99.90;;;;;;4987379;28;20375;-48
2022/11/22 12:02:15;;;;;;;;;;;24.70;99.90;;;;;;4936672;29;19919;-48
2022/11/22 12:04:46;;;;;;;;;;;24.70;99.90;;;;;;4937078;29;19907;-48
2022/11/22 12:07:37;;;;;;;;;;;24.70;99.90;;;;;;4937183;29;19978;-49
2022/11/22 12:10:23;;;;;;;;;;;24.70;99.90;;;;;;4937139;29;19977;-48
2022/11/22 12:12:51;;;;;;;;;;;24.70;99.90;;;;;;4936949;29;19911;-49
2022/11/22 12:15:35;;;;;;;;;;;24.60;99.90;;;;;;4937203;29;19907;-48
2022/11/22 12:18:36;;;;;;;;;;;24.60;99.90;;;;;;5134369;27;20333;-48
2022/11/22 12:21:15;;;;;;;;;;;24.60;99.90;;;;;;5131627;27;19998;-51
2022/11/22 12:23:55;;;;;;;;;;;24.60;99.90;;;;;;5131430;27;19908;-48
2022/11/22 12:26:21;;;;;;;;;;;24.50;99.90;;;;;;5131567;27;20049;-50
2022/11/22 12:28:46;;;;;;;;;;;24.50;99.90;;;;;;5131685;27;19978;-49
2022/11/22 12:31:18;;;;;;;;;;;24.50;99.90;;;;;;5131354;27;19907;-48
2022/11/22 12:33:49;;;;;;;;;;;24.50;99.90;;;;;;5131495;27;19919;-49
2022/11/22 12:36:19;;;;;;;;;;;24.50;99.90;;;;;;5131308;27;19916;-49
2022/11/22 12:38:46;;;;;;;;;;;24.50;99.90;;;;;;5143002;27;19987;-48
2022/11/22 12:41:15;;;;;;;;;;;24.40;99.90;;;;;;5135882;27;19939;-49
2022/11/22 12:43:56;;;;;;;;;;;24.50;99.90;;;;;;5131379;27;19953;-49
2022/11/22 12:46:28;;;;;;;;;;;24.40;99.90;;;;;;5131382;27;19907;-49
2022/11/22 12:48:56;;;;;;;;;;;24.40;99.90;;;;;;5131281;27;19908;-49
2022/11/22 12:51:47;;;;;;;;;;;24.40;99.90;;;;;;5142757;27;19918;-48
2022/11/22 12:54:16;;;;;;;;;;;24.40;99.90;;;;;;5099344;27;19911;-48
2022/11/22 12:56:44;;;;;;;;;;;24.40;99.90;;;;;;5123967;27;19915;-47
2022/11/22 12:59:10;;;;;;;;;;;24.40;99.90;;;;;;5115082;28;19915;-48
2022/11/22 13:01:35;;;;;;;;;;;24.40;99.90;;;;;;5112581;28;19907;-49
2022/11/22 13:04:11;;;;;;;;;;;24.30;99.90;;;;;;5111709;28;19907;-48
2022/11/22 13:06:57;;;;;;;;;;;24.30;99.90;;;;;;5130803;27;19908;-48
2022/11/22 13:09:29;;;;;;;;;;;24.40;99.90;;;;;;5112465;28;20010;-49
2022/11/22 13:12:07;;;;;;;;;;;24.30;99.90;;;;;;5112308;28;19914;-50
2022/11/22 13:14:34;;;;;;;;;;;24.30;99.90;;;;;;5112358;28;20374;-49
2022/11/22 13:17:04;;;;;;;;;;;24.30;99.90;;;;;;5130425;27;20338;-49
2022/11/22 13:19:31;;;;;;;;;;;24.30;99.90;;;;;;5130780;27;20251;-49
2022/11/22 13:22:15;;;;;;;;;;;24.30;99.90;;;;;;5112045;28;20341;-50
2022/11/22 13:25:02;;;;;;;;;;;24.30;99.90;;;;;;5130665;27;19908;-49
2022/11/22 13:27:29;;;;;;;;;;;24.30;99.90;;;;;;5128529;27;19915;-49
2022/11/22 13:29:58;;;;;;;;;;;24.30;99.90;;;;;;5123197;27;19968;-50
2022/11/22 13:32:34;;;;;;;;;;;24.30;99.90;;;;;;5105180;28;19951;-49
2022/11/22 13:35:05;;;;;;;;;;;24.30;99.90;;;;;;5098336;28;19999;-49
2022/11/22 13:37:34;;;;;;;;;;;24.30;99.90;;;;;;5115692;28;19915;-50
2022/11/22 13:40:10;;;;;;;;;;;24.30;99.90;;;;;;5097735;28;19911;-50
2022/11/22 13:42:36;;;;;;;;;;;24.30;99.90;;;;;;5116683;28;19908;-50
2022/11/22 13:45:02;;;;;;;;;;;24.30;99.90;;;;;;5098066;28;20287;-50
2022/11/22 13:47:27;;;;;;;;;;;24.30;99.90;;;;;;5116285;28;19908;-50
2022/11/22 13:49:53;;;;;;;;;;;24.30;99.90;;;;;;5109668;27;19918;-50
2022/11/22 13:52:19;;;;;;;;;;;24.30;99.90;;;;;;5118786;27;19914;-50
2022/11/22 13:55:05;;;;;;;;;;;24.30;99.90;;;;;;5123702;27;20291;-49
2022/11/22 13:57:33;;;;;;;;;;;24.40;99.90;;;;;;5113233;28;20348;-49
2022/11/22 14:00:14;;;;;;;;;;;24.40;99.90;;;;;;5116021;28;19943;-50
2022/11/22 14:02:44;;;;;;;;;;;24.40;99.90;;;;;;5115901;28;19968;-49
2022/11/22 14:05:29;;;;;;;;;;;24.40;99.90;;;;;;5116012;28;19908;-49
2022/11/22 14:07:58;;;;;;;;;;;24.40;99.90;;;;;;5115694;28;19914;-49
2022/11/22 14:10:24;;;;;;;;;;;24.40;99.90;;;;;;5115798;28;20022;-50
2022/11/22 14:12:49;;;;;;;;;;;24.40;99.90;;;;;;5115885;28;19908;-49
2022/11/22 14:15:18;;;;;;;;;;;24.40;99.90;;;;;;5115540;28;20328;-50
2022/11/22 14:17:46;;;;;;;;;;;24.40;99.90;;;;;;5115477;28;19981;-50
2022/11/22 14:20:18;;;;;;;;;;;24.40;99.90;;;;;;5115501;28;19930;-49
2022/11/22 14:22:53;;;;;;;;;;;24.40;99.90;;;;;;5104795;27;19907;-49
2022/11/22 14:25:34;;;;;;;;;;;24.40;99.90;;;;;;5121160;27;20030;-49
2022/11/22 14:28:20;;;;;;;;;;;24.40;99.90;;;;;;5115486;28;19947;-49
2022/11/22 14:30:48;;;;;;;;;;;24.40;99.90;;;;;;5096419;28;19994;-49
2022/11/22 14:33:25;;;;;;;;;;;24.40;99.90;;;;;;5115423;28;19907;-49
2022/11/22 14:36:05;;;;;;;;;;;24.40;99.90;;;;;;5115324;28;20015;-49
2022/11/22 14:38:35;;;;;;;;;;;24.40;99.90;;;;;;5102843;27;19935;-47
2022/11/22 14:41:19;;;;;;;;;;;24.40;99.90;;;;;;5128651;27;19907;-48
2022/11/22 14:43:45;;;;;;;;;;;24.40;99.90;;;;;;5129703;27;20388;-49